LOWI

Innsbruck Airport

Innsbruck, Austria
METAR LOWI 201820Z VRB01KT CAVOK 18/12 Q1019 NOSIG
Observed Flight Rules
Sep-20 @ 18:20 UTC (22 minutes ago) Visual Flight Rules
Wind Visibility Clouds
Variable at 1 knots 10,000+ meters
Temperatures Readings
Current 18°C / 64°F
Dewpoint 12°C / 54°F
Humidity 68%
Altimeter 30.09" Hg
Pressure 1019 hPa
Elevation 581
METAR LOWI 201820Z VRB01KT CAVOK 18/12 Q1019 NOSIG
Observed Flight Rules
Sep-20 @ 18:20 UTC
(22 minutes ago)
VFR
Wind Visibility
Variable at 1 knots 10,000+ meters
Clouds
Temperature Dewpoint
18°C / 64°F 12°C / 54°F
Humidity Altimeter Pressure
68% 30.09" Hg 1019 hPa